Latest Weather Observations for Lihou Reef Lighthouse

IDQ60801

Issued at 7:52 pm EST Friday 20 May 2022 (issued every 10 minutes, with the page automatically refreshed every 10 minutes)

About weather observations | Map of weather stations | Latest weather observations for QLD | Other Formats
Station Details ID: 200880 Name: LIHOU REEF LIGHTHOUSE Lat: -17.13 Lon: 152.15 Height: 10.26 m
Data from the previous 72 hours. | See also: Recent months at Lihou Reef Lighthouse
Date/Time
EST
Temp
°C
App
Temp
°C
Dew
Point
°C
Rel
Hum
%
Delta-T
°C
Wind Press
QNH
hPa
Press
MSL
hPa
Rain since
9am
mm
Dir  Spd
km/h
Gust
km/h
Spd
kts
Gust
kts
20/07:30pm 26.6 - - - - SE 30 32 16 17 1013.7 1013.6 -
20/07:00pm 26.7 - - - - ESE 28 33 15 18 1013.6 1013.5 -
20/06:30pm 26.8 - - - - ESE 26 32 14 17 1013.2 1013.1 -
20/06:00pm 26.7 - - - - ESE 26 32 14 17 1012.9 1012.8 -
20/05:30pm 26.7 - - - - ESE 26 32 14 17 1012.7 1012.6 -
20/05:00pm 26.8 - - - - ESE 24 28 13 15 1012.4 1012.3 -
20/04:30pm 26.9 - - - - ESE 22 26 12 14 1012.3 1012.2 -
20/04:00pm 25.7 - - - - SE 28 33 15 18 1012.1 1012.0 -
20/03:30pm 27.0 - - - - ESE 20 24 11 13 1012.1 1012.0 -
20/03:00pm 27.2 - - - - ESE 20 24 11 13 1011.9 1011.8 -
20/02:30pm 27.1 - - - - ESE 19 24 10 13 1011.9 1011.8 -
20/02:00pm 26.8 - - - - ESE 17 22 9 12 1012.1 1012.0 -
20/01:30pm 27.2 - - - - ESE 19 22 10 12 1012.3 1012.2 -
20/01:00pm 27.1 - - - - E 19 22 10 12 1012.6 1012.5 -
20/12:30pm 27.1 - - - - E 19 24 10 13 1013.0 1012.9 -
20/12:00pm 27.1 - - - - E 20 24 11 13 1013.3 1013.2 -
20/11:30am 27.0 - - - - E 20 24 11 13 1013.5 1013.4 -
20/11:00am 27.2 - - - - E 22 26 12 14 1013.9 1013.8 -
20/10:30am 26.9 - - - - E 24 28 13 15 1014.1 1014.0 -
20/10:00am 27.1 - - - - ESE 26 30 14 16 1014.2 1014.1 -
20/09:30am 27.0 - - - - ESE 28 32 15 17 1014.4 1014.3 -
20/09:00am 25.0 - - - - E 32 39 17 21 1014.5 1014.4 -
20/08:30am 26.7 - - - - ESE 28 35 15 19 1014.5 1014.4 -
20/08:00am 27.2 - - - - ESE 24 28 13 15 1014.2 1014.1 -
20/07:30am 26.9 - - - - ESE 22 28 12 15 1014.1 1014.0 -
20/07:00am 26.5 - - - - ESE 20 24 11 13 1013.9 1013.8 -
20/06:30am 26.5 - - - - ESE 22 26 12 14 1013.6 1013.5 -
20/06:00am 26.6 - - - - ESE 20 26 11 14 1013.4 1013.3 -
20/05:30am 26.6 - - - - ESE 22 26 12 14 1013.1 1013.0 -
20/05:00am 26.5 - - - - ESE 22 26 12 14 1012.9 1012.8 -
20/04:30am 26.7 - - - - E 20 24 11 13 1012.7 1012.6 -
20/04:00am 26.3 - - - - ESE 20 24 11 13 1012.6 1012.5 -
20/03:30am 26.4 - - - - ESE 20 24 11 13 1012.6 1012.5 -
20/03:00am 26.5 - - - - ESE 24 28 13 15 1012.8 1012.7 -
20/02:30am 26.2 - - - - ESE 22 26 12 14 1013.0 1012.9 -
20/02:00am 26.3 - - - - ESE 22 24 12 13 1013.4 1013.3 -
20/01:30am 26.2 - - - - ESE 20 24 11 13 1013.5 1013.4 -
20/01:00am 26.4 - - - - ESE 24 28 13 15 1013.8 1013.7 -
20/12:30am 26.4 - - - - ESE 24 28 13 15 1014.0 1013.9 -
20/12:00am 26.5 - - - - ESE 22 26 12 14 1014.3 1014.2 -
 
Date/Time
EST
Temp
°C
App
Temp
°C
Dew
Point
°C
Rel
Hum
%
Delta-T
°C
Wind Press
QNH
hPa
Press
MSL
hPa
Rain since
9am
mm
Dir  Spd
km/h
Gust
km/h
Spd
kts
Gust
kts
19/11:30pm 26.6 - - - - ESE 26 30 14 16 1014.6 1014.5 -
19/11:00pm 26.6 - - - - SE 24 28 13 15 1014.7 1014.6 -
19/10:30pm 26.4 - - - - SE 20 24 11 13 1014.9 1014.8 -
19/10:00pm 26.3 - - - - SE 22 24 12 13 1015.0 1014.9 -
19/09:30pm 26.5 - - - - SE 26 30 14 16 1015.0 1014.9 -
19/09:00pm 26.6 - - - - SE 24 28 13 15 1014.9 1014.8 -
19/08:30pm 25.9 - - - - SSE 28 33 15 18 1014.9 1014.8 -
19/08:00pm 26.6 - - - - SE 19 24 10 13 1014.8 1014.7 -
19/07:30pm 26.6 - - - - SE 22 28 12 15 1014.4 1014.3 -
19/07:00pm 26.6 - - - - SE 20 24 11 13 1014.2 1014.1 -
19/06:30pm 26.5 - - - - SE 20 26 11 14 1013.7 1013.6 -
19/06:00pm 26.4 - - - - SE 20 26 11 14 1013.6 1013.5 -
19/05:30pm 26.6 - - - - SE 19 22 10 12 1013.3 1013.2 -
19/05:00pm 26.6 - - - - SE 20 22 11 12 1013.1 1013.0 -
19/04:30pm 26.7 - - - - SE 19 22 10 12 1012.8 1012.7 -
19/04:00pm 26.4 - - - - ESE 15 19 8 10 1012.8 1012.7 -
19/03:30pm 26.3 - - - - ESE 20 24 11 13 1012.6 1012.5 -
19/03:00pm 26.6 - - - - SE 20 22 11 12 1012.4 1012.3 -
19/02:30pm 26.8 - - - - SE 17 20 9 11 1012.3 1012.2 -
19/02:00pm 26.7 - - - - SE 19 22 10 12 1012.6 1012.5 -
19/01:30pm 26.6 - - - - SE 19 22 10 12 1012.9 1012.8 -
19/01:00pm 26.6 - - - - SE 20 26 11 14 1013.2 1013.1 -
19/12:30pm 26.7 - - - - SE 20 24 11 13 1013.7 1013.6 -
19/12:00pm 26.5 - - - - SE 22 24 12 13 1014.0 1013.9 -
19/11:30am 26.7 - - - - SE 20 24 11 13 1014.6 1014.5 -
19/11:00am 26.8 - - - - ESE 19 22 10 12 1015.0 1014.9 -
19/10:30am 26.8 - - - - SE 20 24 11 13 1015.2 1015.1 -
19/10:00am 26.7 - - - - SE 19 20 10 11 1015.4 1015.3 -
19/09:30am 26.6 - - - - SE 20 22 11 12 1015.4 1015.3 -
19/09:00am 26.5 - - - - SE 19 20 10 11 1015.4 1015.3 -
19/08:30am 26.7 - - - - SE 19 22 10 12 1015.3 1015.2 -
19/08:00am 26.2 - - - - SE 19 22 10 12 1015.2 1015.1 -
19/07:30am 26.7 - - - - SE 19 22 10 12 1015.0 1014.9 -
19/07:00am 26.3 - - - - SE 22 24 12 13 1014.8 1014.7 -
19/06:30am 26.1 - - - - ESE 19 22 10 12 1014.4 1014.3 -
19/06:00am 26.2 - - - - ESE 17 20 9 11 1014.1 1014.0 -
19/05:30am 26.0 - - - - SE 17 19 9 10 1013.9 1013.8 -
19/05:00am 26.1 - - - - SE 13 17 7 9 1013.6 1013.5 -
19/04:30am 25.7 - - - - SE 17 22 9 12 1013.5 1013.4 -
19/04:00am 25.8 - - - - SE 22 32 12 17 1013.4 1013.3 -
19/03:30am 26.3 - - - - SE 17 20 9 11 1013.5 1013.4 -
19/03:00am 26.2 - - - - SE 17 22 9 12 1013.5 1013.4 -
19/02:30am 26.4 - - - - SE 15 19 8 10 1013.6 1013.5 -
19/02:00am 26.2 - - - - SE 15 19 8 10 1013.8 1013.7 -
19/01:30am 26.4 - - - - SE 15 19 8 10 1014.0 1013.9 -
19/01:00am 26.3 - - - - SE 17 20 9 11 1014.2 1014.1 -
19/12:30am 26.4 - - - - SE 17 20 9 11 1014.5 1014.4 -
19/12:00am 26.5 - - - - SE 13 17 7 9 1014.7 1014.6 -
 
Date/Time
EST
Temp
°C
App
Temp
°C
Dew
Point
°C
Rel
Hum
%
Delta-T
°C
Wind Press
QNH
hPa
Press
MSL
hPa
Rain since
9am
mm
Dir  Spd
km/h
Gust
km/h
Spd
kts
Gust
kts
18/11:30pm 26.4 - - - - SE 15 19 8 10 1014.8 1014.7 -
18/11:00pm 26.5 - - - - SE 15 17 8 9 1015.1 1015.0 -
18/10:30pm 26.5 - - - - SE 15 19 8 10 1015.2 1015.1 -
18/10:00pm 26.6 - - - - SE 17 19 9 10 1015.3 1015.2 -
18/09:30pm 26.6 - - - - SE 19 20 10 11 1015.2 1015.1 -
18/09:00pm 26.6 - - - - SE 17 20 9 11 1015.2 1015.1 -
18/08:30pm 26.6 - - - - SE 17 20 9 11 1015.0 1014.9 -
18/08:00pm 26.6 - - - - SE 17 20 9 11 1014.8 1014.7 -
18/07:30pm 26.6 - - - - SE 17 19 9 10 1014.5 1014.4 -
18/07:00pm 26.8 - - - - SE 17 20 9 11 1014.2 1014.1 -
18/06:30pm 26.7 - - - - SE 15 19 8 10 1013.8 1013.7 -
18/06:00pm 26.6 - - - - SE 13 17 7 9 1013.6 1013.5 -
18/05:30pm 26.8 - - - - SE 13 17 7 9 1013.3 1013.2 -
18/05:00pm 26.9 - - - - SE 11 15 6 8 1013.0 1012.9 -
18/04:30pm 27.1 - - - - SE 11 13 6 7 1012.8 1012.7 -
18/04:00pm 27.1 - - - - ESE 9 11 5 6 1012.6 1012.5 -
18/03:30pm 27.0 - - - - SE 11 15 6 8 1012.2 1012.1 -
18/03:00pm 27.0 - - - - SE 13 15 7 8 1012.3 1012.2 -
18/02:30pm 27.1 - - - - ESE 11 15 6 8 1012.3 1012.2 -
18/02:00pm 27.3 - - - - ESE 9 13 5 7 1012.5 1012.4 -
18/01:30pm 27.4 - - - - ESE 11 15 6 8 1012.7 1012.6 -
18/01:00pm 27.4 - - - - ESE 9 13 5 7 1013.1 1013.0 -
18/12:30pm 27.3 - - - - ESE 9 13 5 7 1013.5 1013.4 -
18/12:00pm 27.1 - - - - SE 11 13 6 7 1014.0 1013.9 -
18/11:30am 27.5 - - - - ESE 9 11 5 6 1014.4 1014.3 -
18/11:00am 27.3 - - - - ESE 9 13 5 7 1014.8 1014.7 -
18/10:30am 27.3 - - - - E 9 13 5 7 1015.1 1015.0 -
18/10:00am 27.4 - - - - ESE 11 13 6 7 1015.1 1015.0 -
18/09:30am 27.6 - - - - ESE 11 13 6 7 1015.1 1015.0 -
18/09:00am 27.2 - - - - ESE 11 13 6 7 1015.1 1015.0 -
18/08:30am 27.4 - - - - ESE 9 13 5 7 1014.9 1014.8 -
18/08:00am 26.9 - - - - ESE 9 13 5 7 1014.8 1014.7 -
18/07:30am 26.4 - - - - ESE 9 13 5 7 1014.5 1014.4 -
18/07:00am 26.4 - - - - ESE 11 15 6 8 1014.3 1014.2 -
18/06:30am 25.9 - - - - ESE 7 11 4 6 1014.1 1014.0 -
18/06:00am 25.8 - - - - ESE 7 9 4 5 1013.8 1013.7 -
18/05:30am 25.8 - - - - CALM 0 9 0 5 1013.6 1013.5 -
18/05:00am 26.0 - - - - CALM 0 6 0 3 1013.4 1013.3 -
18/04:30am 25.9 - - - - CALM 0 13 0 7 1013.3 1013.2 -
18/04:00am 25.9 - - - - CALM 0 0 0 0 1013.3 1013.2 -
18/03:30am 26.1 - - - - N 2 13 1 7 1013.3 1013.2 -
18/03:00am 26.1 - - - - CALM 0 7 0 4 1013.3 1013.2 -
18/02:30am 25.9 - - - - CALM 0 0 0 0 1013.4 1013.3 -
18/02:00am 25.8 - - - - CALM 0 7 0 4 1013.6 1013.5 -
18/01:30am 25.7 - - - - CALM 0 0 0 0 1013.8 1013.7 -
18/01:00am 25.8 - - - - CALM 0 7 0 4 1014.1 1014.0 -
18/12:30am 25.9 - - - - CALM 0 11 0 6 1014.3 1014.2 -
18/12:00am 25.9 - - - - CALM 0 7 0 4 1014.6 1014.5 -
 
Date/Time
EST
Temp
°C
App
Temp
°C
Dew
Point
°C
Rel
Hum
%
Delta-T
°C
Wind Press
QNH
hPa
Press
MSL
hPa
Rain since
9am
mm
Dir  Spd
km/h
Gust
km/h
Spd
kts
Gust
kts
17/11:30pm 26.2 - - - - SE 2 13 1 7 1014.8 1014.7 -
17/11:00pm 26.1 - - - - CALM 0 9 0 5 1015.0 1014.9 -
17/10:30pm 26.1 - - - - CALM 0 4 0 2 1015.1 1015.0 -
17/10:00pm 26.1 - - - - CALM 0 9 0 5 1015.2 1015.1 -
17/09:30pm 26.1 - - - - CALM 0 4 0 2 1015.1 1015.0 -
17/09:00pm 26.2 - - - - CALM 0 7 0 4 1015.0 1014.9 -
17/08:30pm 26.3 - - - - ESE 2 11 1 6 1014.8 1014.7 -
17/08:00pm 26.5 - - - - CALM 0 11 0 6 1014.5 1014.4 -

Other formats

Comma delimited format used in spreadsheet applications
http://www.bom.gov.au/fwo/IDQ60801/IDQ60801.94293.axf

JavaScript Object Notation format (JSON) in row-major order
http://www.bom.gov.au/fwo/IDQ60801/IDQ60801.94293.json

Data quality

Most of these data are generated automatically and are frequently updated. Quality checks on data are not normally performed. It is possible for incorrect values to appear. Refer to information at About Latest Weather Observations and please check the disclaimer before using these data.